sensor_id;sensor_type;location;lat;lon;timestamp;temperature;humidity
78345;DHT22;67620;51.134;6.548;2023-04-03T00:02:11;3.20;70.60
78345;DHT22;67620;51.134;6.548;2023-04-03T00:04:36;3.20;70.30
78345;DHT22;67620;51.134;6.548;2023-04-03T00:07:02;3.10;70.40
78345;DHT22;67620;51.134;6.548;2023-04-03T00:09:28;3.10;70.40
78345;DHT22;67620;51.134;6.548;2023-04-03T00:11:53;3.10;70.40
78345;DHT22;67620;51.134;6.548;2023-04-03T00:14:19;3.10;70.50
78345;DHT22;67620;51.134;6.548;2023-04-03T00:16:44;3.10;70.50
78345;DHT22;67620;51.134;6.548;2023-04-03T00:19:10;3.10;70.30
78345;DHT22;67620;51.134;6.548;2023-04-03T00:21:37;3.00;70.20
78345;DHT22;67620;51.134;6.548;2023-04-03T00:24:03;3.00;70.60
78345;DHT22;67620;51.134;6.548;2023-04-03T00:26:28;3.00;70.90
78345;DHT22;67620;51.134;6.548;2023-04-03T00:28:54;3.00;70.70
78345;DHT22;67620;51.134;6.548;2023-04-03T00:31:20;3.00;70.90
78345;DHT22;67620;51.134;6.548;2023-04-03T00:33:45;3.00;70.70
78345;DHT22;67620;51.134;6.548;2023-04-03T00:36:12;2.90;70.70
78345;DHT22;67620;51.134;6.548;2023-04-03T00:38:38;2.90;70.60
78345;DHT22;67620;51.134;6.548;2023-04-03T00:41:04;2.90;70.80
78345;DHT22;67620;51.134;6.548;2023-04-03T00:43:30;2.90;71.10
78345;DHT22;67620;51.134;6.548;2023-04-03T00:45:57;2.90;70.90
78345;DHT22;67620;51.134;6.548;2023-04-03T00:48:31;2.90;70.80
78345;DHT22;67620;51.134;6.548;2023-04-03T00:50:58;2.90;70.90
78345;DHT22;67620;51.134;6.548;2023-04-03T00:53:29;2.80;70.90
78345;DHT22;67620;51.134;6.548;2023-04-03T00:55:56;2.90;70.70
78345;DHT22;67620;51.134;6.548;2023-04-03T00:58:33;2.80;70.40
78345;DHT22;67620;51.134;6.548;2023-04-03T01:01:06;2.80;71.00
78345;DHT22;67620;51.134;6.548;2023-04-03T01:03:32;2.80;70.90
78345;DHT22;67620;51.134;6.548;2023-04-03T01:05:58;2.80;70.70
78345;DHT22;67620;51.134;6.548;2023-04-03T01:08:23;2.80;70.80
78345;DHT22;67620;51.134;6.548;2023-04-03T01:10:49;2.70;70.90
78345;DHT22;67620;51.134;6.548;2023-04-03T01:13:41;2.70;70.70
78345;DHT22;67620;51.134;6.548;2023-04-03T01:16:07;2.70;70.80
78345;DHT22;67620;51.134;6.548;2023-04-03T01:18:36;2.70;71.10
78345;DHT22;67620;51.134;6.548;2023-04-03T01:24:50;2.60;70.90
78345;DHT22;67620;51.134;6.548;2023-04-03T01:26:51;2.60;70.80
78345;DHT22;67620;51.134;6.548;2023-04-03T01:29:17;2.60;70.90
78345;DHT22;67620;51.134;6.548;2023-04-03T01:31:57;2.60;70.90
78345;DHT22;67620;51.134;6.548;2023-04-03T01:34:24;2.60;71.20
78345;DHT22;67620;51.134;6.548;2023-04-03T01:36:50;2.60;71.10
78345;DHT22;67620;51.134;6.548;2023-04-03T01:39:16;2.60;71.10
78345;DHT22;67620;51.134;6.548;2023-04-03T01:41:42;2.60;71.40
78345;DHT22;67620;51.134;6.548;2023-04-03T01:44:07;2.70;71.50
78345;DHT22;67620;51.134;6.548;2023-04-03T01:46:33;2.70;71.90
78345;DHT22;67620;51.134;6.548;2023-04-03T01:48:59;2.70;71.80
78345;DHT22;67620;51.134;6.548;2023-04-03T01:51:24;2.70;72.00
78345;DHT22;67620;51.134;6.548;2023-04-03T01:53:50;2.70;72.20
78345;DHT22;67620;51.134;6.548;2023-04-03T01:56:16;2.70;72.30
78345;DHT22;67620;51.134;6.548;2023-04-03T01:58:42;2.80;72.10
78345;DHT22;67620;51.134;6.548;2023-04-03T02:01:07;2.70;72.20
78345;DHT22;67620;51.134;6.548;2023-04-03T02:03:33;2.70;72.30
78345;DHT22;67620;51.134;6.548;2023-04-03T02:05:59;2.70;72.30
78345;DHT22;67620;51.134;6.548;2023-04-03T02:08:24;2.80;72.20
78345;DHT22;67620;51.134;6.548;2023-04-03T02:10:51;2.80;72.40
78345;DHT22;67620;51.134;6.548;2023-04-03T02:13:17;2.80;72.20
78345;DHT22;67620;51.134;6.548;2023-04-03T02:15:43;2.80;72.40
78345;DHT22;67620;51.134;6.548;2023-04-03T02:18:09;2.80;72.40
78345;DHT22;67620;51.134;6.548;2023-04-03T02:20:34;2.80;72.50
78345;DHT22;67620;51.134;6.548;2023-04-03T02:23:01;2.80;72.90
78345;DHT22;67620;51.134;6.548;2023-04-03T02:25:26;2.80;72.90
78345;DHT22;67620;51.134;6.548;2023-04-03T02:27:52;2.80;72.80
78345;DHT22;67620;51.134;6.548;2023-04-03T02:30:18;2.80;73.20
78345;DHT22;67620;51.134;6.548;2023-04-03T02:32:43;2.80;72.80
78345;DHT22;67620;51.134;6.548;2023-04-03T02:35:10;2.80;73.10
78345;DHT22;67620;51.134;6.548;2023-04-03T02:37:36;2.90;73.10
78345;DHT22;67620;51.134;6.548;2023-04-03T02:40:03;2.90;72.70
78345;DHT22;67620;51.134;6.548;2023-04-03T02:42:29;2.90;72.70
78345;DHT22;67620;51.134;6.548;2023-04-03T02:44:55;2.90;72.70
78345;DHT22;67620;51.134;6.548;2023-04-03T02:47:20;2.90;72.80
78345;DHT22;67620;51.134;6.548;2023-04-03T02:49:46;2.90;72.50
78345;DHT22;67620;51.134;6.548;2023-04-03T02:52:13;2.80;73.00
78345;DHT22;67620;51.134;6.548;2023-04-03T02:54:39;2.80;73.00
78345;DHT22;67620;51.134;6.548;2023-04-03T02:57:04;2.90;72.90
78345;DHT22;67620;51.134;6.548;2023-04-03T02:59:30;2.80;72.90
78345;DHT22;67620;51.134;6.548;2023-04-03T03:01:56;2.80;72.70
78345;DHT22;67620;51.134;6.548;2023-04-03T03:04:22;2.80;72.90
78345;DHT22;67620;51.134;6.548;2023-04-03T03:06:47;2.90;72.90
78345;DHT22;67620;51.134;6.548;2023-04-03T03:09:13;2.90;72.90
78345;DHT22;67620;51.134;6.548;2023-04-03T03:11:39;2.90;72.90
78345;DHT22;67620;51.134;6.548;2023-04-03T03:14:05;2.90;73.10
78345;DHT22;67620;51.134;6.548;2023-04-03T03:16:30;2.90;73.00
78345;DHT22;67620;51.134;6.548;2023-04-03T03:18:56;2.90;73.30
78345;DHT22;67620;51.134;6.548;2023-04-03T03:21:21;2.80;73.20
78345;DHT22;67620;51.134;6.548;2023-04-03T03:23:47;2.80;73.30
78345;DHT22;67620;51.134;6.548;2023-04-03T03:26:13;2.80;73.80
78345;DHT22;67620;51.134;6.548;2023-04-03T03:28:39;2.80;73.60
78345;DHT22;67620;51.134;6.548;2023-04-03T03:31:06;2.80;73.60
78345;DHT22;67620;51.134;6.548;2023-04-03T03:33:32;2.80;73.50
78345;DHT22;67620;51.134;6.548;2023-04-03T03:35:58;2.80;73.70
78345;DHT22;67620;51.134;6.548;2023-04-03T03:38:23;2.80;73.80
78345;DHT22;67620;51.134;6.548;2023-04-03T03:40:50;2.80;73.70
78345;DHT22;67620;51.134;6.548;2023-04-03T03:43:17;2.80;73.40
78345;DHT22;67620;51.134;6.548;2023-04-03T03:45:43;2.80;73.30
78345;DHT22;67620;51.134;6.548;2023-04-03T03:48:09;2.80;73.30
78345;DHT22;67620;51.134;6.548;2023-04-03T03:50:34;2.80;73.40
78345;DHT22;67620;51.134;6.548;2023-04-03T03:53:00;2.70;73.50
78345;DHT22;67620;51.134;6.548;2023-04-03T03:55:26;2.70;73.60
78345;DHT22;67620;51.134;6.548;2023-04-03T03:57:51;2.70;73.40
78345;DHT22;67620;51.134;6.548;2023-04-03T04:00:17;2.70;73.50
78345;DHT22;67620;51.134;6.548;2023-04-03T04:02:43;2.80;73.10
78345;DHT22;67620;51.134;6.548;2023-04-03T04:05:09;2.80;72.80
78345;DHT22;67620;51.134;6.548;2023-04-03T04:07:35;2.70;73.40
78345;DHT22;67620;51.134;6.548;2023-04-03T04:10:00;2.80;73.10
78345;DHT22;67620;51.134;6.548;2023-04-03T04:12:26;2.70;73.20
78345;DHT22;67620;51.134;6.548;2023-04-03T04:14:51;2.70;72.90
78345;DHT22;67620;51.134;6.548;2023-04-03T04:17:17;2.70;73.20
78345;DHT22;67620;51.134;6.548;2023-04-03T04:19:43;2.80;72.90
78345;DHT22;67620;51.134;6.548;2023-04-03T04:22:08;2.80;73.00
78345;DHT22;67620;51.134;6.548;2023-04-03T04:24:34;2.80;72.70
78345;DHT22;67620;51.134;6.548;2023-04-03T04:27:00;2.80;72.60
78345;DHT22;67620;51.134;6.548;2023-04-03T04:29:25;2.70;72.70
78345;DHT22;67620;51.134;6.548;2023-04-03T04:31:51;2.70;72.90
78345;DHT22;67620;51.134;6.548;2023-04-03T04:34:16;2.70;72.50
78345;DHT22;67620;51.134;6.548;2023-04-03T04:36:42;2.70;72.50
78345;DHT22;67620;51.134;6.548;2023-04-03T04:39:07;2.70;72.50
78345;DHT22;67620;51.134;6.548;2023-04-03T04:41:33;2.70;72.50
78345;DHT22;67620;51.134;6.548;2023-04-03T04:43:59;2.70;72.20
78345;DHT22;67620;51.134;6.548;2023-04-03T04:46:25;2.70;72.10
78345;DHT22;67620;51.134;6.548;2023-04-03T04:49:04;2.70;72.10
78345;DHT22;67620;51.134;6.548;2023-04-03T04:51:30;2.70;72.50
78345;DHT22;67620;51.134;6.548;2023-04-03T04:53:56;2.70;72.10
78345;DHT22;67620;51.134;6.548;2023-04-03T04:56:21;2.70;72.00
78345;DHT22;67620;51.134;6.548;2023-04-03T04:58:47;2.70;71.90
78345;DHT22;67620;51.134;6.548;2023-04-03T05:01:13;2.70;72.00
78345;DHT22;67620;51.134;6.548;2023-04-03T05:03:38;2.70;71.70
78345;DHT22;67620;51.134;6.548;2023-04-03T05:06:04;2.60;71.80
78345;DHT22;67620;51.134;6.548;2023-04-03T05:08:30;2.60;71.80
78345;DHT22;67620;51.134;6.548;2023-04-03T05:10:56;2.60;71.90
78345;DHT22;67620;51.134;6.548;2023-04-03T05:13:21;2.70;72.30
78345;DHT22;67620;51.134;6.548;2023-04-03T05:15:47;2.60;71.90
78345;DHT22;67620;51.134;6.548;2023-04-03T05:18:13;2.60;71.80
78345;DHT22;67620;51.134;6.548;2023-04-03T05:20:39;2.60;72.30
78345;DHT22;67620;51.134;6.548;2023-04-03T05:23:05;2.50;72.30
78345;DHT22;67620;51.134;6.548;2023-04-03T05:25:31;2.50;72.60
78345;DHT22;67620;51.134;6.548;2023-04-03T05:27:56;2.50;72.30
78345;DHT22;67620;51.134;6.548;2023-04-03T05:30:22;2.50;72.60
78345;DHT22;67620;51.134;6.548;2023-04-03T05:32:47;2.50;72.40
78345;DHT22;67620;51.134;6.548;2023-04-03T05:35:13;2.50;72.50
78345;DHT22;67620;51.134;6.548;2023-04-03T05:37:39;2.50;72.80
78345;DHT22;67620;51.134;6.548;2023-04-03T05:40:06;2.50;72.50
78345;DHT22;67620;51.134;6.548;2023-04-03T05:42:32;2.50;72.60
78345;DHT22;67620;51.134;6.548;2023-04-03T05:44:58;2.60;72.30
78345;DHT22;67620;51.134;6.548;2023-04-03T05:47:23;2.50;72.70
78345;DHT22;67620;51.134;6.548;2023-04-03T05:49:49;2.50;72.60
78345;DHT22;67620;51.134;6.548;2023-04-03T05:52:22;2.50;72.70
78345;DHT22;67620;51.134;6.548;2023-04-03T05:54:48;2.60;72.70
78345;DHT22;67620;51.134;6.548;2023-04-03T05:57:15;2.60;72.50
78345;DHT22;67620;51.134;6.548;2023-04-03T05:59:42;2.60;72.50
78345;DHT22;67620;51.134;6.548;2023-04-03T06:02:14;2.60;72.80
78345;DHT22;67620;51.134;6.548;2023-04-03T06:04:40;2.50;73.20
78345;DHT22;67620;51.134;6.548;2023-04-03T06:07:06;2.60;73.20
78345;DHT22;67620;51.134;6.548;2023-04-03T06:09:33;2.60;73.20
78345;DHT22;67620;51.134;6.548;2023-04-03T06:11:59;2.60;73.00
78345;DHT22;67620;51.134;6.548;2023-04-03T06:14:25;2.60;73.50
78345;DHT22;67620;51.134;6.548;2023-04-03T06:16:51;2.60;73.20
78345;DHT22;67620;51.134;6.548;2023-04-03T06:19:17;2.70;73.20
78345;DHT22;67620;51.134;6.548;2023-04-03T06:21:43;2.70;73.20
78345;DHT22;67620;51.134;6.548;2023-04-03T06:24:09;2.80;73.20
78345;DHT22;67620;51.134;6.548;2023-04-03T06:26:37;2.70;73.40
78345;DHT22;67620;51.134;6.548;2023-04-03T06:29:03;2.80;73.10
78345;DHT22;67620;51.134;6.548;2023-04-03T06:31:28;2.90;72.80
78345;DHT22;67620;51.134;6.548;2023-04-03T06:33:54;2.90;72.90
78345;DHT22;67620;51.134;6.548;2023-04-03T06:36:20;2.90;73.20
78345;DHT22;67620;51.134;6.548;2023-04-03T06:38:47;2.90;73.00
78345;DHT22;67620;51.134;6.548;2023-04-03T06:41:12;2.90;73.40
78345;DHT22;67620;51.134;6.548;2023-04-03T06:43:38;3.00;73.50
78345;DHT22;67620;51.134;6.548;2023-04-03T06:46:03;3.00;74.10
78345;DHT22;67620;51.134;6.548;2023-04-03T06:48:29;3.00;74.40
78345;DHT22;67620;51.134;6.548;2023-04-03T06:50:55;3.10;74.20
78345;DHT22;67620;51.134;6.548;2023-04-03T06:53:20;3.10;74.30
78345;DHT22;67620;51.134;6.548;2023-04-03T06:55:46;3.20;73.80
78345;DHT22;67620;51.134;6.548;2023-04-03T06:58:13;3.20;73.90
78345;DHT22;67620;51.134;6.548;2023-04-03T07:00:40;3.30;74.10
78345;DHT22;67620;51.134;6.548;2023-04-03T07:03:06;3.30;74.10
78345;DHT22;67620;51.134;6.548;2023-04-03T07:05:32;3.40;73.60
78345;DHT22;67620;51.134;6.548;2023-04-03T07:07:57;3.40;73.60
78345;DHT22;67620;51.134;6.548;2023-04-03T07:10:23;3.50;73.50
78345;DHT22;67620;51.134;6.548;2023-04-03T07:12:49;3.50;72.50
78345;DHT22;67620;51.134;6.548;2023-04-03T07:15:14;3.60;72.20
78345;DHT22;67620;51.134;6.548;2023-04-03T07:17:40;3.60;72.50
78345;DHT22;67620;51.134;6.548;2023-04-03T07:20:06;3.70;72.30
78345;DHT22;67620;51.134;6.548;2023-04-03T07:22:32;3.80;72.70
78345;DHT22;67620;51.134;6.548;2023-04-03T07:24:58;3.80;72.10
78345;DHT22;67620;51.134;6.548;2023-04-03T07:27:24;3.90;71.50
78345;DHT22;67620;51.134;6.548;2023-04-03T07:29:50;4.00;71.70
78345;DHT22;67620;51.134;6.548;2023-04-03T07:32:16;4.00;71.40
78345;DHT22;67620;51.134;6.548;2023-04-03T07:34:43;4.10;71.40
78345;DHT22;67620;51.134;6.548;2023-04-03T07:37:09;4.20;71.70
78345;DHT22;67620;51.134;6.548;2023-04-03T07:39:35;4.20;71.10
78345;DHT22;67620;51.134;6.548;2023-04-03T07:42:01;4.30;71.20
78345;DHT22;67620;51.134;6.548;2023-04-03T07:44:27;4.40;69.00
78345;DHT22;67620;51.134;6.548;2023-04-03T07:46:53;4.50;69.10
78345;DHT22;67620;51.134;6.548;2023-04-03T07:49:21;4.50;68.60
78345;DHT22;67620;51.134;6.548;2023-04-03T07:51:48;4.60;68.90
78345;DHT22;67620;51.134;6.548;2023-04-03T07:54:14;4.70;68.10
78345;DHT22;67620;51.134;6.548;2023-04-03T07:56:40;4.80;68.70
78345;DHT22;67620;51.134;6.548;2023-04-03T07:59:06;4.90;66.50
78345;DHT22;67620;51.134;6.548;2023-04-03T08:01:32;4.90;65.70
78345;DHT22;67620;51.134;6.548;2023-04-03T08:03:59;5.00;65.20
78345;DHT22;67620;51.134;6.548;2023-04-03T08:06:24;5.10;64.80
78345;DHT22;67620;51.134;6.548;2023-04-03T08:08:50;5.10;65.00
78345;DHT22;67620;51.134;6.548;2023-04-03T08:11:17;5.20;65.70
78345;DHT22;67620;51.134;6.548;2023-04-03T08:13:44;5.30;64.60
78345;DHT22;67620;51.134;6.548;2023-04-03T08:16:17;5.50;62.60
78345;DHT22;67620;51.134;6.548;2023-04-03T08:18:43;5.60;61.20
78345;DHT22;67620;51.134;6.548;2023-04-03T08:21:10;5.60;61.20
78345;DHT22;67620;51.134;6.548;2023-04-03T08:23:36;5.70;61.00
78345;DHT22;67620;51.134;6.548;2023-04-03T08:26:06;5.80;61.70
78345;DHT22;67620;51.134;6.548;2023-04-03T08:28:32;6.00;60.80
78345;DHT22;67620;51.134;6.548;2023-04-03T08:31:02;6.10;59.70
78345;DHT22;67620;51.134;6.548;2023-04-03T08:33:28;6.10;59.10
78345;DHT22;67620;51.134;6.548;2023-04-03T08:35:54;6.20;56.90
78345;DHT22;67620;51.134;6.548;2023-04-03T08:38:19;6.30;57.50
78345;DHT22;67620;51.134;6.548;2023-04-03T08:40:45;6.30;55.50
78345;DHT22;67620;51.134;6.548;2023-04-03T08:45:57;6.50;54.00
78345;DHT22;67620;51.134;6.548;2023-04-03T08:48:41;6.50;53.20
78345;DHT22;67620;51.134;6.548;2023-04-03T08:51:14;6.60;55.50
78345;DHT22;67620;51.134;6.548;2023-04-03T08:53:42;6.70;54.40
78345;DHT22;67620;51.134;6.548;2023-04-03T08:56:10;6.80;52.60
78345;DHT22;67620;51.134;6.548;2023-04-03T08:58:55;6.90;51.10
78345;DHT22;67620;51.134;6.548;2023-04-03T09:01:30;6.90;51.10
78345;DHT22;67620;51.134;6.548;2023-04-03T09:04:01;7.00;50.50
78345;DHT22;67620;51.134;6.548;2023-04-03T09:06:31;7.10;50.00
78345;DHT22;67620;51.134;6.548;2023-04-03T09:11:57;7.20;49.30
78345;DHT22;67620;51.134;6.548;2023-04-03T09:20:08;7.50;50.40
78345;DHT22;67620;51.134;6.548;2023-04-03T09:22:39;7.60;49.90
78345;DHT22;67620;51.134;6.548;2023-04-03T09:25:15;7.70;48.80
78345;DHT22;67620;51.134;6.548;2023-04-03T09:27:42;7.80;46.60
78345;DHT22;67620;51.134;6.548;2023-04-03T09:30:22;7.80;47.40
78345;DHT22;67620;51.134;6.548;2023-04-03T09:32:50;7.80;46.10
78345;DHT22;67620;51.134;6.548;2023-04-03T09:35:26;7.80;45.10
78345;DHT22;67620;51.134;6.548;2023-04-03T09:37:58;7.70;48.60
78345;DHT22;67620;51.134;6.548;2023-04-03T09:42:51;7.80;45.60
78345;DHT22;67620;51.134;6.548;2023-04-03T09:45:32;7.80;47.80
78345;DHT22;67620;51.134;6.548;2023-04-03T09:50:38;8.10;46.20
78345;DHT22;67620;51.134;6.548;2023-04-03T09:53:24;8.20;46.00
78345;DHT22;67620;51.134;6.548;2023-04-03T09:55:50;8.20;47.70
78345;DHT22;67620;51.134;6.548;2023-04-03T09:58:30;8.30;46.70
78345;DHT22;67620;51.134;6.548;2023-04-03T10:01:00;8.30;44.60
78345;DHT22;67620;51.134;6.548;2023-04-03T10:03:34;8.40;45.40
78345;DHT22;67620;51.134;6.548;2023-04-03T10:06:03;8.50;46.90
78345;DHT22;67620;51.134;6.548;2023-04-03T10:08:31;8.40;46.40
78345;DHT22;67620;51.134;6.548;2023-04-03T10:11:17;8.60;46.90
78345;DHT22;67620;51.134;6.548;2023-04-03T10:14:02;8.60;46.30
78345;DHT22;67620;51.134;6.548;2023-04-03T10:22:31;8.80;46.50
78345;DHT22;67620;51.134;6.548;2023-04-03T10:25:17;8.90;47.00
78345;DHT22;67620;51.134;6.548;2023-04-03T10:28:00;8.90;46.10
78345;DHT22;67620;51.134;6.548;2023-04-03T10:30:41;9.00;45.70
78345;DHT22;67620;51.134;6.548;2023-04-03T10:33:45;9.00;45.90
78345;DHT22;67620;51.134;6.548;2023-04-03T10:39:52;9.10;45.90
78345;DHT22;67620;51.134;6.548;2023-04-03T10:42:46;8.90;46.70
78345;DHT22;67620;51.134;6.548;2023-04-03T10:53:27;9.10;44.40
78345;DHT22;67620;51.134;6.548;2023-04-03T10:56:36;9.10;44.30
78345;DHT22;67620;51.134;6.548;2023-04-03T10:59:25;9.20;45.90
78345;DHT22;67620;51.134;6.548;2023-04-03T11:02:26;9.40;45.50
78345;DHT22;67620;51.134;6.548;2023-04-03T11:04:57;9.30;45.00
78345;DHT22;67620;51.134;6.548;2023-04-03T11:07:27;9.30;45.80
78345;DHT22;67620;51.134;6.548;2023-04-03T11:10:03;9.30;44.30
78345;DHT22;67620;51.134;6.548;2023-04-03T11:15:43;9.40;44.10
78345;DHT22;67620;51.134;6.548;2023-04-03T11:18:27;9.50;44.50
78345;DHT22;67620;51.134;6.548;2023-04-03T11:21:03;9.60;43.00
78345;DHT22;67620;51.134;6.548;2023-04-03T11:23:35;9.60;43.50
78345;DHT22;67620;51.134;6.548;2023-04-03T11:26:07;9.70;44.20
78345;DHT22;67620;51.134;6.548;2023-04-03T11:28:33;9.60;43.50
78345;DHT22;67620;51.134;6.548;2023-04-03T11:31:28;9.40;42.70
78345;DHT22;67620;51.134;6.548;2023-04-03T11:36:50;9.70;42.30
78345;DHT22;67620;51.134;6.548;2023-04-03T11:41:47;9.70;42.40
78345;DHT22;67620;51.134;6.548;2023-04-03T11:44:35;9.70;43.20
78345;DHT22;67620;51.134;6.548;2023-04-03T11:47:06;9.80;43.80
78345;DHT22;67620;51.134;6.548;2023-04-03T11:50:04;9.80;42.20
78345;DHT22;67620;51.134;6.548;2023-04-03T12:06:41;9.90;40.40
78345;DHT22;67620;51.134;6.548;2023-04-03T12:11:19;10.00;39.50
78345;DHT22;67620;51.134;6.548;2023-04-03T12:24:27;10.10;38.70
78345;DHT22;67620;51.134;6.548;2023-04-03T12:27:15;10.20;39.80
78345;DHT22;67620;51.134;6.548;2023-04-03T12:30:04;10.30;39.50
78345;DHT22;67620;51.134;6.548;2023-04-03T12:32:48;10.30;40.30
78345;DHT22;67620;51.134;6.548;2023-04-03T12:43:59;10.30;40.40
78345;DHT22;67620;51.134;6.548;2023-04-03T12:46:43;10.40;39.90
78345;DHT22;67620;51.134;6.548;2023-04-03T12:51:56;10.50;37.50
78345;DHT22;67620;51.134;6.548;2023-04-03T12:54:27;10.50;38.20
78345;DHT22;67620;51.134;6.548;2023-04-03T12:57:12;10.40;38.80
78345;DHT22;67620;51.134;6.548;2023-04-03T12:59:41;10.50;39.70
78345;DHT22;67620;51.134;6.548;2023-04-03T13:02:22;10.50;38.00
78345;DHT22;67620;51.134;6.548;2023-04-03T13:04:50;10.40;40.20
78345;DHT22;67620;51.134;6.548;2023-04-03T13:07:31;10.30;38.20
78345;DHT22;67620;51.134;6.548;2023-04-03T13:12:32;10.40;37.50
78345;DHT22;67620;51.134;6.548;2023-04-03T13:15:00;10.50;36.90
78345;DHT22;67620;51.134;6.548;2023-04-03T13:17:27;10.50;37.50
78345;DHT22;67620;51.134;6.548;2023-04-03T13:19:54;10.50;37.40
78345;DHT22;67620;51.134;6.548;2023-04-03T13:22:35;10.50;40.10
78345;DHT22;67620;51.134;6.548;2023-04-03T13:25:10;10.50;39.50
78345;DHT22;67620;51.134;6.548;2023-04-03T13:27:38;10.50;39.40
78345;DHT22;67620;51.134;6.548;2023-04-03T13:30:30;10.60;38.80
78345;DHT22;67620;51.134;6.548;2023-04-03T13:32:58;10.60;39.10
78345;DHT22;67620;51.134;6.548;2023-04-03T13:35:39;10.60;39.20
78345;DHT22;67620;51.134;6.548;2023-04-03T13:38:22;10.70;39.10
78345;DHT22;67620;51.134;6.548;2023-04-03T13:40:54;10.60;36.60
78345;DHT22;67620;51.134;6.548;2023-04-03T13:43:24;10.60;38.20
78345;DHT22;67620;51.134;6.548;2023-04-03T13:48:45;10.60;37.60
78345;DHT22;67620;51.134;6.548;2023-04-03T13:54:00;10.50;38.30
78345;DHT22;67620;51.134;6.548;2023-04-03T13:56:33;10.50;38.80
78345;DHT22;67620;51.134;6.548;2023-04-03T14:04:30;10.60;38.30
78345;DHT22;67620;51.134;6.548;2023-04-03T14:06:57;10.60;38.90
78345;DHT22;67620;51.134;6.548;2023-04-03T14:09:25;10.60;38.80
78345;DHT22;67620;51.134;6.548;2023-04-03T14:11:54;10.70;38.20
78345;DHT22;67620;51.134;6.548;2023-04-03T14:14:24;10.70;39.40
78345;DHT22;67620;51.134;6.548;2023-04-03T14:16:56;10.60;40.50
78345;DHT22;67620;51.134;6.548;2023-04-03T14:19:26;10.60;38.70
78345;DHT22;67620;51.134;6.548;2023-04-03T14:21:53;10.60;39.80
78345;DHT22;67620;51.134;6.548;2023-04-03T14:24:20;10.60;40.40
78345;DHT22;67620;51.134;6.548;2023-04-03T14:26:46;10.50;40.00
78345;DHT22;67620;51.134;6.548;2023-04-03T14:29:13;10.50;39.40
78345;DHT22;67620;51.134;6.548;2023-04-03T14:31:40;10.50;40.00
78345;DHT22;67620;51.134;6.548;2023-04-03T14:34:06;10.50;38.80
78345;DHT22;67620;51.134;6.548;2023-04-03T14:36:34;10.50;38.70
78345;DHT22;67620;51.134;6.548;2023-04-03T14:39:00;10.50;40.60
78345;DHT22;67620;51.134;6.548;2023-04-03T14:41:26;10.60;40.50
78345;DHT22;67620;51.134;6.548;2023-04-03T14:43:52;10.50;39.10
78345;DHT22;67620;51.134;6.548;2023-04-03T14:46:30;10.50;40.80
78345;DHT22;67620;51.134;6.548;2023-04-03T14:48:57;10.50;41.70
78345;DHT22;67620;51.134;6.548;2023-04-03T14:51:23;10.50;40.60
78345;DHT22;67620;51.134;6.548;2023-04-03T14:53:48;10.50;39.80
78345;DHT22;67620;51.134;6.548;2023-04-03T14:56:21;10.50;41.60
78345;DHT22;67620;51.134;6.548;2023-04-03T14:58:49;10.50;41.00
78345;DHT22;67620;51.134;6.548;2023-04-03T15:01:17;10.50;40.70
78345;DHT22;67620;51.134;6.548;2023-04-03T15:03:43;10.50;40.40
78345;DHT22;67620;51.134;6.548;2023-04-03T15:06:12;10.50;40.80
78345;DHT22;67620;51.134;6.548;2023-04-03T15:08:38;10.50;41.10
78345;DHT22;67620;51.134;6.548;2023-04-03T15:11:04;10.40;40.90
78345;DHT22;67620;51.134;6.548;2023-04-03T15:13:30;10.40;40.90
78345;DHT22;67620;51.134;6.548;2023-04-03T15:15:55;10.40;39.30
78345;DHT22;67620;51.134;6.548;2023-04-03T15:18:26;10.30;40.30
78345;DHT22;67620;51.134;6.548;2023-04-03T15:20:53;10.30;39.60
78345;DHT22;67620;51.134;6.548;2023-04-03T15:23:19;10.30;39.40
78345;DHT22;67620;51.134;6.548;2023-04-03T15:25:46;10.30;41.10
78345;DHT22;67620;51.134;6.548;2023-04-03T15:28:25;10.30;41.40
78345;DHT22;67620;51.134;6.548;2023-04-03T15:30:52;10.20;40.50
78345;DHT22;67620;51.134;6.548;2023-04-03T15:33:19;10.10;39.90
78345;DHT22;67620;51.134;6.548;2023-04-03T15:35:45;10.10;41.50
78345;DHT22;67620;51.134;6.548;2023-04-03T15:38:11;10.10;41.10
78345;DHT22;67620;51.134;6.548;2023-04-03T15:40:37;10.10;40.20
78345;DHT22;67620;51.134;6.548;2023-04-03T15:43:04;10.00;41.00
78345;DHT22;67620;51.134;6.548;2023-04-03T15:45:29;10.10;41.20
78345;DHT22;67620;51.134;6.548;2023-04-03T15:47:56;10.10;41.00
78345;DHT22;67620;51.134;6.548;2023-04-03T15:50:22;10.00;40.90
78345;DHT22;67620;51.134;6.548;2023-04-03T15:52:49;10.00;41.30
78345;DHT22;67620;51.134;6.548;2023-04-03T15:55:24;10.00;41.70
78345;DHT22;67620;51.134;6.548;2023-04-03T15:57:53;10.00;41.90
78345;DHT22;67620;51.134;6.548;2023-04-03T16:21:00;9.80;41.70
78345;DHT22;67620;51.134;6.548;2023-04-03T16:23:26;9.80;41.90
78345;DHT22;67620;51.134;6.548;2023-04-03T16:25:51;9.70;42.50
78345;DHT22;67620;51.134;6.548;2023-04-03T16:28:17;9.70;42.10
78345;DHT22;67620;51.134;6.548;2023-04-03T16:30:44;9.60;41.20
78345;DHT22;67620;51.134;6.548;2023-04-03T16:33:11;9.50;41.50
78345;DHT22;67620;51.134;6.548;2023-04-03T16:35:37;9.50;41.30
78345;DHT22;67620;51.134;6.548;2023-04-03T16:38:03;9.50;41.70
78345;DHT22;67620;51.134;6.548;2023-04-03T16:40:28;9.40;40.80
78345;DHT22;67620;51.134;6.548;2023-04-03T16:42:54;9.30;41.80
78345;DHT22;67620;51.134;6.548;2023-04-03T16:45:20;9.30;41.70
78345;DHT22;67620;51.134;6.548;2023-04-03T16:47:46;9.30;42.70
78345;DHT22;67620;51.134;6.548;2023-04-03T16:50:11;9.30;41.60
78345;DHT22;67620;51.134;6.548;2023-04-03T16:52:37;9.30;43.10
78345;DHT22;67620;51.134;6.548;2023-04-03T16:55:02;9.30;42.90
78345;DHT22;67620;51.134;6.548;2023-04-03T16:57:28;9.20;42.40
78345;DHT22;67620;51.134;6.548;2023-04-03T16:59:54;9.10;42.90
78345;DHT22;67620;51.134;6.548;2023-04-03T17:02:21;9.10;42.60
78345;DHT22;67620;51.134;6.548;2023-04-03T17:04:50;9.10;42.60
78345;DHT22;67620;51.134;6.548;2023-04-03T17:07:17;9.00;42.10
78345;DHT22;67620;51.134;6.548;2023-04-03T17:09:42;9.00;42.80
78345;DHT22;67620;51.134;6.548;2023-04-03T17:12:08;9.00;43.10
78345;DHT22;67620;51.134;6.548;2023-04-03T17:14:34;8.90;43.40
78345;DHT22;67620;51.134;6.548;2023-04-03T17:16:59;9.00;43.80
78345;DHT22;67620;51.134;6.548;2023-04-03T17:19:25;8.90;43.70
78345;DHT22;67620;51.134;6.548;2023-04-03T17:21:52;8.80;43.50
78345;DHT22;67620;51.134;6.548;2023-04-03T17:24:17;8.80;43.40
78345;DHT22;67620;51.134;6.548;2023-04-03T17:26:43;8.80;43.20
78345;DHT22;67620;51.134;6.548;2023-04-03T17:29:08;8.70;43.40
78345;DHT22;67620;51.134;6.548;2023-04-03T17:31:34;8.70;43.50
78345;DHT22;67620;51.134;6.548;2023-04-03T17:34:00;8.70;42.90
78345;DHT22;67620;51.134;6.548;2023-04-03T17:36:30;8.70;43.70
78345;DHT22;67620;51.134;6.548;2023-04-03T17:38:55;8.50;43.40
78345;DHT22;67620;51.134;6.548;2023-04-03T17:41:21;8.60;43.30
78345;DHT22;67620;51.134;6.548;2023-04-03T17:43:47;8.50;43.70
78345;DHT22;67620;51.134;6.548;2023-04-03T17:46:13;8.50;43.50
78345;DHT22;67620;51.134;6.548;2023-04-03T17:48:40;8.50;43.60
78345;DHT22;67620;51.134;6.548;2023-04-03T17:51:12;8.40;44.00